sensor_id;sensor_type;location;lat;lon;timestamp;P1;durP1;ratioP1;P2;durP2;ratioP2
7160;SDS011;3622;53.576;9.978;2022-12-20T00:01:29;12.03;;;7.40;;
7160;SDS011;3622;53.576;9.978;2022-12-20T00:03:55;8.90;;;6.67;;
7160;SDS011;3622;53.576;9.978;2022-12-20T00:06:22;8.30;;;5.93;;
7160;SDS011;3622;53.576;9.978;2022-12-20T00:08:55;7.63;;;6.43;;
7160;SDS011;3622;53.576;9.978;2022-12-20T00:11:21;8.83;;;7.57;;
7160;SDS011;3622;53.576;9.978;2022-12-20T00:13:47;11.27;;;6.90;;
7160;SDS011;3622;53.576;9.978;2022-12-20T00:16:14;10.77;;;6.83;;
7160;SDS011;3622;53.576;9.978;2022-12-20T00:18:41;10.47;;;6.20;;
7160;SDS011;3622;53.576;9.978;2022-12-20T00:21:08;10.80;;;6.97;;
7160;SDS011;3622;53.576;9.978;2022-12-20T00:23:35;8.70;;;7.00;;
7160;SDS011;3622;53.576;9.978;2022-12-20T00:26:09;11.90;;;7.13;;
7160;SDS011;3622;53.576;9.978;2022-12-20T00:28:36;10.13;;;7.20;;
7160;SDS011;3622;53.576;9.978;2022-12-20T00:31:03;9.77;;;7.20;;
7160;SDS011;3622;53.576;9.978;2022-12-20T00:33:29;14.23;;;8.03;;
7160;SDS011;3622;53.576;9.978;2022-12-20T00:35:55;12.97;;;7.50;;
7160;SDS011;3622;53.576;9.978;2022-12-20T00:38:22;12.10;;;8.30;;
7160;SDS011;3622;53.576;9.978;2022-12-20T00:40:58;10.37;;;7.33;;
7160;SDS011;3622;53.576;9.978;2022-12-20T00:43:24;11.67;;;7.73;;
7160;SDS011;3622;53.576;9.978;2022-12-20T00:45:50;11.20;;;7.90;;
7160;SDS011;3622;53.576;9.978;2022-12-20T00:48:16;9.87;;;7.27;;
7160;SDS011;3622;53.576;9.978;2022-12-20T00:50:42;10.17;;;7.17;;
7160;SDS011;3622;53.576;9.978;2022-12-20T00:53:08;8.80;;;7.40;;
7160;SDS011;3622;53.576;9.978;2022-12-20T00:55:34;12.10;;;8.10;;
7160;SDS011;3622;53.576;9.978;2022-12-20T00:58:05;11.50;;;7.23;;
7160;SDS011;3622;53.576;9.978;2022-12-20T01:00:31;8.30;;;6.93;;
7160;SDS011;3622;53.576;9.978;2022-12-20T01:02:57;10.60;;;6.87;;
7160;SDS011;3622;53.576;9.978;2022-12-20T01:05:23;11.37;;;7.20;;
7160;SDS011;3622;53.576;9.978;2022-12-20T01:07:49;10.17;;;7.33;;
7160;SDS011;3622;53.576;9.978;2022-12-20T01:10:15;10.40;;;7.30;;
7160;SDS011;3622;53.576;9.978;2022-12-20T01:12:42;12.40;;;7.63;;
7160;SDS011;3622;53.576;9.978;2022-12-20T01:15:08;10.30;;;7.60;;
7160;SDS011;3622;53.576;9.978;2022-12-20T01:17:34;11.67;;;7.80;;
7160;SDS011;3622;53.576;9.978;2022-12-20T01:20:00;11.13;;;7.53;;
7160;SDS011;3622;53.576;9.978;2022-12-20T01:22:26;8.10;;;6.80;;
7160;SDS011;3622;53.576;9.978;2022-12-20T01:24:52;17.80;;;9.60;;
7160;SDS011;3622;53.576;9.978;2022-12-20T01:27:18;14.60;;;8.80;;
7160;SDS011;3622;53.576;9.978;2022-12-20T01:29:47;11.20;;;7.60;;
7160;SDS011;3622;53.576;9.978;2022-12-20T01:32:13;10.20;;;7.37;;
7160;SDS011;3622;53.576;9.978;2022-12-20T01:34:39;12.73;;;7.67;;
7160;SDS011;3622;53.576;9.978;2022-12-20T01:37:05;13.30;;;7.67;;
7160;SDS011;3622;53.576;9.978;2022-12-20T01:39:31;12.13;;;8.07;;
7160;SDS011;3622;53.576;9.978;2022-12-20T01:41:57;9.07;;;7.47;;
7160;SDS011;3622;53.576;9.978;2022-12-20T01:46:52;11.27;;;8.43;;
7160;SDS011;3622;53.576;9.978;2022-12-20T01:51:49;9.73;;;7.57;;
7160;SDS011;3622;53.576;9.978;2022-12-20T01:54:24;13.07;;;8.00;;
7160;SDS011;3622;53.576;9.978;2022-12-20T01:56:58;10.70;;;7.10;;
7160;SDS011;3622;53.576;9.978;2022-12-20T01:59:25;10.03;;;7.00;;
7160;SDS011;3622;53.576;9.978;2022-12-20T02:01:51;9.67;;;6.87;;
7160;SDS011;3622;53.576;9.978;2022-12-20T02:04:17;9.43;;;6.57;;
7160;SDS011;3622;53.576;9.978;2022-12-20T02:06:43;11.00;;;6.40;;
7160;SDS011;3622;53.576;9.978;2022-12-20T02:09:09;10.73;;;7.03;;
7160;SDS011;3622;53.576;9.978;2022-12-20T02:16:37;7.10;;;6.40;;
7160;SDS011;3622;53.576;9.978;2022-12-20T02:19:24;8.80;;;6.80;;
7160;SDS011;3622;53.576;9.978;2022-12-20T02:30:07;8.50;;;6.67;;
7160;SDS011;3622;53.576;9.978;2022-12-20T02:32:41;8.63;;;6.93;;
7160;SDS011;3622;53.576;9.978;2022-12-20T02:35:08;10.10;;;6.30;;
7160;SDS011;3622;53.576;9.978;2022-12-20T02:37:35;9.63;;;6.50;;
7160;SDS011;3622;53.576;9.978;2022-12-20T02:40:01;11.07;;;6.50;;
7160;SDS011;3622;53.576;9.978;2022-12-20T02:42:29;10.80;;;6.77;;
7160;SDS011;3622;53.576;9.978;2022-12-20T02:44:58;8.40;;;5.97;;
7160;SDS011;3622;53.576;9.978;2022-12-20T02:47:54;8.60;;;6.30;;
7160;SDS011;3622;53.576;9.978;2022-12-20T02:50:22;10.97;;;6.37;;
7160;SDS011;3622;53.576;9.978;2022-12-20T02:52:50;6.63;;;5.63;;
7160;SDS011;3622;53.576;9.978;2022-12-20T02:55:16;8.60;;;6.40;;
7160;SDS011;3622;53.576;9.978;2022-12-20T02:57:47;8.47;;;6.00;;
7160;SDS011;3622;53.576;9.978;2022-12-20T03:00:20;8.67;;;5.77;;
7160;SDS011;3622;53.576;9.978;2022-12-20T03:02:47;10.90;;;6.57;;
7160;SDS011;3622;53.576;9.978;2022-12-20T03:05:33;7.67;;;6.07;;
7160;SDS011;3622;53.576;9.978;2022-12-20T03:08:00;9.27;;;5.90;;
7160;SDS011;3622;53.576;9.978;2022-12-20T03:10:26;8.17;;;5.77;;
7160;SDS011;3622;53.576;9.978;2022-12-20T03:12:52;8.33;;;6.03;;
7160;SDS011;3622;53.576;9.978;2022-12-20T03:15:18;8.10;;;6.03;;
7160;SDS011;3622;53.576;9.978;2022-12-20T03:17:44;8.97;;;6.63;;
7160;SDS011;3622;53.576;9.978;2022-12-20T03:20:11;6.67;;;5.90;;
7160;SDS011;3622;53.576;9.978;2022-12-20T03:22:37;7.47;;;5.77;;
7160;SDS011;3622;53.576;9.978;2022-12-20T03:25:03;6.10;;;5.50;;
7160;SDS011;3622;53.576;9.978;2022-12-20T03:27:29;6.90;;;5.80;;
7160;SDS011;3622;53.576;9.978;2022-12-20T03:29:55;8.50;;;6.30;;
7160;SDS011;3622;53.576;9.978;2022-12-20T03:32:21;7.40;;;5.40;;
7160;SDS011;3622;53.576;9.978;2022-12-20T03:34:47;6.10;;;5.43;;
7160;SDS011;3622;53.576;9.978;2022-12-20T03:37:13;6.90;;;5.30;;
7160;SDS011;3622;53.576;9.978;2022-12-20T03:39:40;6.47;;;5.57;;
7160;SDS011;3622;53.576;9.978;2022-12-20T03:42:06;7.93;;;5.13;;
7160;SDS011;3622;53.576;9.978;2022-12-20T03:44:32;6.53;;;5.00;;
7160;SDS011;3622;53.576;9.978;2022-12-20T03:46:58;6.17;;;5.00;;
7160;SDS011;3622;53.576;9.978;2022-12-20T03:49:24;5.57;;;4.70;;
7160;SDS011;3622;53.576;9.978;2022-12-20T03:51:50;7.80;;;5.60;;
7160;SDS011;3622;53.576;9.978;2022-12-20T03:54:16;6.17;;;5.00;;
7160;SDS011;3622;53.576;9.978;2022-12-20T03:56:42;8.47;;;4.80;;
7160;SDS011;3622;53.576;9.978;2022-12-20T03:59:08;6.17;;;5.20;;
7160;SDS011;3622;53.576;9.978;2022-12-20T04:01:34;11.03;;;5.50;;
7160;SDS011;3622;53.576;9.978;2022-12-20T04:04:01;6.07;;;4.80;;
7160;SDS011;3622;53.576;9.978;2022-12-20T04:06:27;7.03;;;5.03;;
7160;SDS011;3622;53.576;9.978;2022-12-20T04:08:53;7.20;;;4.70;;
7160;SDS011;3622;53.576;9.978;2022-12-20T04:11:19;6.47;;;4.83;;
7160;SDS011;3622;53.576;9.978;2022-12-20T04:13:46;7.13;;;4.93;;
7160;SDS011;3622;53.576;9.978;2022-12-20T04:16:13;5.13;;;4.67;;
7160;SDS011;3622;53.576;9.978;2022-12-20T04:18:39;6.57;;;4.87;;
7160;SDS011;3622;53.576;9.978;2022-12-20T04:21:05;5.10;;;4.60;;
7160;SDS011;3622;53.576;9.978;2022-12-20T04:23:35;5.17;;;4.67;;
7160;SDS011;3622;53.576;9.978;2022-12-20T04:26:02;5.30;;;4.80;;
7160;SDS011;3622;53.576;9.978;2022-12-20T04:28:28;5.97;;;4.57;;
7160;SDS011;3622;53.576;9.978;2022-12-20T04:30:55;10.33;;;5.30;;
7160;SDS011;3622;53.576;9.978;2022-12-20T04:33:21;8.27;;;6.20;;
7160;SDS011;3622;53.576;9.978;2022-12-20T04:35:47;6.23;;;5.23;;
7160;SDS011;3622;53.576;9.978;2022-12-20T04:38:13;4.33;;;4.03;;
7160;SDS011;3622;53.576;9.978;2022-12-20T04:40:39;8.53;;;5.37;;
7160;SDS011;3622;53.576;9.978;2022-12-20T04:43:06;7.00;;;5.27;;
7160;SDS011;3622;53.576;9.978;2022-12-20T04:45:32;9.13;;;5.30;;
7160;SDS011;3622;53.576;9.978;2022-12-20T04:47:58;5.37;;;4.70;;
7160;SDS011;3622;53.576;9.978;2022-12-20T04:50:24;8.73;;;5.33;;
7160;SDS011;3622;53.576;9.978;2022-12-20T04:52:50;6.10;;;5.30;;
7160;SDS011;3622;53.576;9.978;2022-12-20T04:55:38;7.73;;;5.80;;
7160;SDS011;3622;53.576;9.978;2022-12-20T04:58:05;5.77;;;4.17;;
7160;SDS011;3622;53.576;9.978;2022-12-20T05:00:31;5.93;;;4.63;;
7160;SDS011;3622;53.576;9.978;2022-12-20T05:02:57;5.50;;;4.83;;
7160;SDS011;3622;53.576;9.978;2022-12-20T05:05:23;6.63;;;4.83;;
7160;SDS011;3622;53.576;9.978;2022-12-20T05:07:50;7.10;;;5.80;;
7160;SDS011;3622;53.576;9.978;2022-12-20T05:10:16;7.23;;;5.47;;
7160;SDS011;3622;53.576;9.978;2022-12-20T05:12:42;5.20;;;4.80;;
7160;SDS011;3622;53.576;9.978;2022-12-20T05:15:08;5.90;;;5.33;;
7160;SDS011;3622;53.576;9.978;2022-12-20T05:17:35;6.20;;;5.17;;
7160;SDS011;3622;53.576;9.978;2022-12-20T05:20:01;4.87;;;4.37;;
7160;SDS011;3622;53.576;9.978;2022-12-20T05:24:54;8.23;;;5.10;;
7160;SDS011;3622;53.576;9.978;2022-12-20T05:27:38;5.87;;;4.97;;
7160;SDS011;3622;53.576;9.978;2022-12-20T05:30:05;7.80;;;5.60;;
7160;SDS011;3622;53.576;9.978;2022-12-20T05:32:31;7.60;;;5.40;;
7160;SDS011;3622;53.576;9.978;2022-12-20T05:34:57;7.90;;;5.53;;
7160;SDS011;3622;53.576;9.978;2022-12-20T05:37:23;9.30;;;5.30;;
7160;SDS011;3622;53.576;9.978;2022-12-20T05:39:49;6.17;;;5.00;;
7160;SDS011;3622;53.576;9.978;2022-12-20T05:42:15;9.00;;;4.50;;
7160;SDS011;3622;53.576;9.978;2022-12-20T05:44:40;6.23;;;5.13;;
7160;SDS011;3622;53.576;9.978;2022-12-20T05:47:06;9.97;;;5.43;;
7160;SDS011;3622;53.576;9.978;2022-12-20T05:49:32;5.33;;;4.83;;
7160;SDS011;3622;53.576;9.978;2022-12-20T05:51:59;7.73;;;5.43;;
7160;SDS011;3622;53.576;9.978;2022-12-20T05:54:25;7.20;;;4.80;;
7160;SDS011;3622;53.576;9.978;2022-12-20T05:56:51;6.10;;;4.90;;
7160;SDS011;3622;53.576;9.978;2022-12-20T05:59:17;5.47;;;4.70;;
7160;SDS011;3622;53.576;9.978;2022-12-20T06:01:43;4.93;;;4.53;;
7160;SDS011;3622;53.576;9.978;2022-12-20T06:04:09;5.47;;;4.03;;
7160;SDS011;3622;53.576;9.978;2022-12-20T06:06:35;5.30;;;4.73;;
7160;SDS011;3622;53.576;9.978;2022-12-20T06:09:01;4.70;;;4.40;;
7160;SDS011;3622;53.576;9.978;2022-12-20T06:11:27;6.00;;;5.10;;
7160;SDS011;3622;53.576;9.978;2022-12-20T06:13:53;5.07;;;4.57;;
7160;SDS011;3622;53.576;9.978;2022-12-20T06:16:19;5.40;;;4.73;;
7160;SDS011;3622;53.576;9.978;2022-12-20T06:18:47;5.23;;;4.73;;
7160;SDS011;3622;53.576;9.978;2022-12-20T06:21:13;7.33;;;5.23;;
7160;SDS011;3622;53.576;9.978;2022-12-20T06:23:39;5.93;;;5.33;;
7160;SDS011;3622;53.576;9.978;2022-12-20T06:26:05;10.10;;;5.50;;
7160;SDS011;3622;53.576;9.978;2022-12-20T06:28:33;8.47;;;5.73;;
7160;SDS011;3622;53.576;9.978;2022-12-20T06:30:59;5.93;;;4.67;;
7160;SDS011;3622;53.576;9.978;2022-12-20T06:33:26;6.00;;;5.27;;
7160;SDS011;3622;53.576;9.978;2022-12-20T06:35:52;8.97;;;6.50;;
7160;SDS011;3622;53.576;9.978;2022-12-20T06:38:18;8.93;;;5.40;;
7160;SDS011;3622;53.576;9.978;2022-12-20T06:40:43;8.20;;;5.90;;
7160;SDS011;3622;53.576;9.978;2022-12-20T06:43:09;8.37;;;5.67;;
7160;SDS011;3622;53.576;9.978;2022-12-20T06:45:35;7.80;;;5.73;;
7160;SDS011;3622;53.576;9.978;2022-12-20T06:48:01;10.07;;;5.50;;
7160;SDS011;3622;53.576;9.978;2022-12-20T06:50:27;6.73;;;4.17;;
7160;SDS011;3622;53.576;9.978;2022-12-20T06:52:53;5.80;;;5.13;;
7160;SDS011;3622;53.576;9.978;2022-12-20T06:55:19;6.30;;;5.03;;
7160;SDS011;3622;53.576;9.978;2022-12-20T06:57:45;7.03;;;5.37;;
7160;SDS011;3622;53.576;9.978;2022-12-20T07:00:11;8.07;;;5.90;;
7160;SDS011;3622;53.576;9.978;2022-12-20T07:02:37;5.97;;;5.17;;
7160;SDS011;3622;53.576;9.978;2022-12-20T07:05:03;4.60;;;4.20;;
7160;SDS011;3622;53.576;9.978;2022-12-20T07:07:30;7.77;;;5.07;;
7160;SDS011;3622;53.576;9.978;2022-12-20T07:09:55;7.23;;;4.77;;
7160;SDS011;3622;53.576;9.978;2022-12-20T07:12:21;5.10;;;4.63;;
7160;SDS011;3622;53.576;9.978;2022-12-20T07:14:48;10.43;;;5.20;;
7160;SDS011;3622;53.576;9.978;2022-12-20T07:17:14;6.17;;;4.80;;
7160;SDS011;3622;53.576;9.978;2022-12-20T07:19:40;10.20;;;4.97;;
7160;SDS011;3622;53.576;9.978;2022-12-20T07:22:07;8.53;;;5.00;;
7160;SDS011;3622;53.576;9.978;2022-12-20T07:24:33;6.10;;;5.43;;
7160;SDS011;3622;53.576;9.978;2022-12-20T07:26:59;7.20;;;5.90;;
7160;SDS011;3622;53.576;9.978;2022-12-20T07:29:26;8.57;;;5.90;;
7160;SDS011;3622;53.576;9.978;2022-12-20T07:31:52;6.57;;;5.97;;
7160;SDS011;3622;53.576;9.978;2022-12-20T07:34:18;12.20;;;6.47;;
7160;SDS011;3622;53.576;9.978;2022-12-20T07:36:44;11.00;;;6.50;;
7160;SDS011;3622;53.576;9.978;2022-12-20T07:39:10;8.73;;;5.80;;
7160;SDS011;3622;53.576;9.978;2022-12-20T07:41:36;7.13;;;5.80;;
7160;SDS011;3622;53.576;9.978;2022-12-20T07:44:02;8.63;;;6.10;;
7160;SDS011;3622;53.576;9.978;2022-12-20T07:46:28;5.53;;;5.03;;
7160;SDS011;3622;53.576;9.978;2022-12-20T07:48:54;8.10;;;6.47;;
7160;SDS011;3622;53.576;9.978;2022-12-20T07:51:23;11.00;;;7.10;;
7160;SDS011;3622;53.576;9.978;2022-12-20T07:53:55;8.87;;;6.30;;
7160;SDS011;3622;53.576;9.978;2022-12-20T07:56:22;6.00;;;5.40;;
7160;SDS011;3622;53.576;9.978;2022-12-20T07:58:49;8.57;;;6.10;;
7160;SDS011;3622;53.576;9.978;2022-12-20T08:01:15;11.83;;;6.27;;
7160;SDS011;3622;53.576;9.978;2022-12-20T08:03:44;6.83;;;5.77;;
7160;SDS011;3622;53.576;9.978;2022-12-20T08:06:12;10.30;;;6.20;;
7160;SDS011;3622;53.576;9.978;2022-12-20T08:08:41;6.00;;;5.50;;
7160;SDS011;3622;53.576;9.978;2022-12-20T08:11:08;9.20;;;6.77;;
7160;SDS011;3622;53.576;9.978;2022-12-20T08:13:35;8.43;;;6.00;;
7160;SDS011;3622;53.576;9.978;2022-12-20T08:16:01;9.93;;;6.63;;
7160;SDS011;3622;53.576;9.978;2022-12-20T08:18:27;7.80;;;6.37;;
7160;SDS011;3622;53.576;9.978;2022-12-20T08:20:53;7.83;;;6.20;;
7160;SDS011;3622;53.576;9.978;2022-12-20T08:23:19;8.93;;;6.10;;
7160;SDS011;3622;53.576;9.978;2022-12-20T08:25:45;6.83;;;5.87;;
7160;SDS011;3622;53.576;9.978;2022-12-20T08:28:11;7.57;;;6.30;;
7160;SDS011;3622;53.576;9.978;2022-12-20T08:30:37;7.57;;;5.70;;
7160;SDS011;3622;53.576;9.978;2022-12-20T08:33:03;7.13;;;6.23;;
7160;SDS011;3622;53.576;9.978;2022-12-20T08:35:29;7.97;;;5.67;;
7160;SDS011;3622;53.576;9.978;2022-12-20T08:37:55;11.40;;;5.80;;
7160;SDS011;3622;53.576;9.978;2022-12-20T08:40:21;8.60;;;6.00;;
7160;SDS011;3622;53.576;9.978;2022-12-20T08:42:47;7.37;;;5.87;;
7160;SDS011;3622;53.576;9.978;2022-12-20T08:45:13;9.40;;;5.30;;
7160;SDS011;3622;53.576;9.978;2022-12-20T08:47:39;10.57;;;5.70;;
7160;SDS011;3622;53.576;9.978;2022-12-20T08:50:05;6.83;;;5.43;;
7160;SDS011;3622;53.576;9.978;2022-12-20T08:52:31;8.53;;;5.80;;
7160;SDS011;3622;53.576;9.978;2022-12-20T08:54:57;6.33;;;4.97;;
7160;SDS011;3622;53.576;9.978;2022-12-20T08:57:23;5.93;;;5.30;;
7160;SDS011;3622;53.576;9.978;2022-12-20T08:59:49;7.53;;;5.20;;
7160;SDS011;3622;53.576;9.978;2022-12-20T09:02:15;10.33;;;6.43;;
7160;SDS011;3622;53.576;9.978;2022-12-20T09:04:41;5.80;;;4.73;;
7160;SDS011;3622;53.576;9.978;2022-12-20T09:07:08;7.13;;;4.70;;
7160;SDS011;3622;53.576;9.978;2022-12-20T09:09:34;5.83;;;5.30;;
7160;SDS011;3622;53.576;9.978;2022-12-20T09:12:00;5.83;;;5.17;;
7160;SDS011;3622;53.576;9.978;2022-12-20T09:14:26;11.47;;;5.10;;
7160;SDS011;3622;53.576;9.978;2022-12-20T09:16:52;10.27;;;5.23;;
7160;SDS011;3622;53.576;9.978;2022-12-20T09:19:18;7.07;;;6.10;;
7160;SDS011;3622;53.576;9.978;2022-12-20T09:21:44;6.57;;;5.30;;
7160;SDS011;3622;53.576;9.978;2022-12-20T09:24:10;9.60;;;5.87;;
7160;SDS011;3622;53.576;9.978;2022-12-20T09:26:36;10.40;;;5.87;;
7160;SDS011;3622;53.576;9.978;2022-12-20T09:29:04;6.10;;;5.50;;
7160;SDS011;3622;53.576;9.978;2022-12-20T09:31:30;6.10;;;5.50;;
7160;SDS011;3622;53.576;9.978;2022-12-20T09:33:57;7.37;;;5.50;;
7160;SDS011;3622;53.576;9.978;2022-12-20T09:36:24;6.23;;;5.60;;
7160;SDS011;3622;53.576;9.978;2022-12-20T09:38:50;7.60;;;5.40;;
7160;SDS011;3622;53.576;9.978;2022-12-20T09:41:19;6.03;;;5.50;;
7160;SDS011;3622;53.576;9.978;2022-12-20T09:43:47;7.30;;;5.20;;
7160;SDS011;3622;53.576;9.978;2022-12-20T09:46:13;6.87;;;5.90;;
7160;SDS011;3622;53.576;9.978;2022-12-20T09:48:40;11.57;;;6.23;;
7160;SDS011;3622;53.576;9.978;2022-12-20T09:56:36;6.33;;;5.50;;
7160;SDS011;3622;53.576;9.978;2022-12-20T09:59:10;6.17;;;5.57;;
7160;SDS011;3622;53.576;9.978;2022-12-20T10:01:37;6.33;;;5.63;;
7160;SDS011;3622;53.576;9.978;2022-12-20T10:04:05;8.47;;;6.20;;
7160;SDS011;3622;53.576;9.978;2022-12-20T10:09:29;6.80;;;5.93;;
7160;SDS011;3622;53.576;9.978;2022-12-20T10:12:32;6.70;;;5.53;;
7160;SDS011;3622;53.576;9.978;2022-12-20T10:22:27;8.73;;;6.80;;
7160;SDS011;3622;53.576;9.978;2022-12-20T10:27:40;7.23;;;5.90;;
7160;SDS011;3622;53.576;9.978;2022-12-20T10:30:39;12.93;;;6.50;;
7160;SDS011;3622;53.576;9.978;2022-12-20T10:32:59;14.00;;;6.23;;
7160;SDS011;3622;53.576;9.978;2022-12-20T10:35:29;7.60;;;6.20;;
7160;SDS011;3622;53.576;9.978;2022-12-20T10:38:11;6.27;;;5.67;;
7160;SDS011;3622;53.576;9.978;2022-12-20T10:40:47;7.47;;;5.30;;
7160;SDS011;3622;53.576;9.978;2022-12-20T10:43:23;14.00;;;5.40;;
7160;SDS011;3622;53.576;9.978;2022-12-20T10:48:27;6.33;;;5.10;;
7160;SDS011;3622;53.576;9.978;2022-12-20T10:50:54;6.00;;;5.10;;
7160;SDS011;3622;53.576;9.978;2022-12-20T10:53:21;6.00;;;5.30;;
7160;SDS011;3622;53.576;9.978;2022-12-20T10:55:49;6.03;;;5.43;;
7160;SDS011;3622;53.576;9.978;2022-12-20T10:58:33;10.90;;;4.77;;
7160;SDS011;3622;53.576;9.978;2022-12-20T11:01:33;5.07;;;4.60;;
7160;SDS011;3622;53.576;9.978;2022-12-20T11:03:56;8.23;;;5.23;;
7160;SDS011;3622;53.576;9.978;2022-12-20T11:06:24;7.23;;;5.20;;
7160;SDS011;3622;53.576;9.978;2022-12-20T11:08:50;6.80;;;4.57;;
7160;SDS011;3622;53.576;9.978;2022-12-20T11:11:17;7.60;;;4.90;;
7160;SDS011;3622;53.576;9.978;2022-12-20T11:13:44;5.87;;;5.27;;
7160;SDS011;3622;53.576;9.978;2022-12-20T11:18:58;4.90;;;4.40;;
7160;SDS011;3622;53.576;9.978;2022-12-20T11:21:30;4.67;;;4.27;;
7160;SDS011;3622;53.576;9.978;2022-12-20T11:24:01;9.63;;;5.17;;
7160;SDS011;3622;53.576;9.978;2022-12-20T11:26:40;4.80;;;4.40;;
7160;SDS011;3622;53.576;9.978;2022-12-20T11:37:17;4.60;;;4.20;;
7160;SDS011;3622;53.576;9.978;2022-12-20T11:47:33;5.53;;;4.63;;
7160;SDS011;3622;53.576;9.978;2022-12-20T11:50:06;4.70;;;4.30;;
7160;SDS011;3622;53.576;9.978;2022-12-20T11:52:40;4.87;;;4.10;;
7160;SDS011;3622;53.576;9.978;2022-12-20T11:57:36;4.90;;;4.50;;
7160;SDS011;3622;53.576;9.978;2022-12-20T12:00:05;9.20;;;4.17;;
7160;SDS011;3622;53.576;9.978;2022-12-20T12:02:52;6.17;;;4.73;;
7160;SDS011;3622;53.576;9.978;2022-12-20T12:05:20;7.27;;;4.27;;
7160;SDS011;3622;53.576;9.978;2022-12-20T12:07:49;4.93;;;4.43;;
7160;SDS011;3622;53.576;9.978;2022-12-20T12:10:22;4.50;;;4.10;;
7160;SDS011;3622;53.576;9.978;2022-12-20T12:12:52;4.97;;;4.43;;
7160;SDS011;3622;53.576;9.978;2022-12-20T12:17:55;4.93;;;3.87;;
7160;SDS011;3622;53.576;9.978;2022-12-20T12:23:17;4.70;;;4.10;;
7160;SDS011;3622;53.576;9.978;2022-12-20T12:25:44;4.93;;;4.50;;
7160;SDS011;3622;53.576;9.978;2022-12-20T12:28:13;5.37;;;4.53;;
7160;SDS011;3622;53.576;9.978;2022-12-20T12:30:42;8.60;;;4.67;;
7160;SDS011;3622;53.576;9.978;2022-12-20T12:33:14;4.90;;;4.50;;
7160;SDS011;3622;53.576;9.978;2022-12-20T12:40:56;4.77;;;4.37;;
7160;SDS011;3622;53.576;9.978;2022-12-20T12:46:15;6.20;;;4.87;;
7160;SDS011;3622;53.576;9.978;2022-12-20T12:51:16;10.60;;;5.10;;
7160;SDS011;3622;53.576;9.978;2022-12-20T12:53:50;5.77;;;5.10;;
7160;SDS011;3622;53.576;9.978;2022-12-20T13:01:52;5.53;;;5.00;;
7160;SDS011;3622;53.576;9.978;2022-12-20T13:11:41;7.90;;;5.37;;
7160;SDS011;3622;53.576;9.978;2022-12-20T13:16:39;5.77;;;5.23;;
7160;SDS011;3622;53.576;9.978;2022-12-20T13:19:13;7.40;;;4.87;;
7160;SDS011;3622;53.576;9.978;2022-12-20T13:21:40;6.70;;;5.23;;
7160;SDS011;3622;53.576;9.978;2022-12-20T13:26:52;6.93;;;5.43;;
7160;SDS011;3622;53.576;9.978;2022-12-20T13:29:23;7.90;;;5.43;;
7160;SDS011;3622;53.576;9.978;2022-12-20T13:31:50;7.37;;;5.80;;
7160;SDS011;3622;53.576;9.978;2022-12-20T13:40:56;8.10;;;5.80;;
7160;SDS011;3622;53.576;9.978;2022-12-20T13:43:06;6.70;;;5.87;;
7160;SDS011;3622;53.576;9.978;2022-12-20T13:45:36;6.10;;;5.33;;
7160;SDS011;3622;53.576;9.978;2022-12-20T13:48:03;14.17;;;5.50;;
7160;SDS011;3622;53.576;9.978;2022-12-20T13:50:31;6.63;;;5.13;;
7160;SDS011;3622;53.576;9.978;2022-12-20T13:52:59;5.80;;;5.20;;
7160;SDS011;3622;53.576;9.978;2022-12-20T13:55:30;6.63;;;5.80;;
7160;SDS011;3622;53.576;9.978;2022-12-20T13:57:57;9.03;;;5.80;;
7160;SDS011;3622;53.576;9.978;2022-12-20T14:00:23;8.33;;;5.63;;
7160;SDS011;3622;53.576;9.978;2022-12-20T14:02:50;9.47;;;5.60;;
7160;SDS011;3622;53.576;9.978;2022-12-20T14:07:44;8.10;;;6.40;;
7160;SDS011;3622;53.576;9.978;2022-12-20T14:10:15;6.30;;;5.40;;
7160;SDS011;3622;53.576;9.978;2022-12-20T14:12:44;6.80;;;6.10;;
7160;SDS011;3622;53.576;9.978;2022-12-20T14:15:20;11.30;;;8.50;;
7160;SDS011;3622;53.576;9.978;2022-12-20T14:17:46;8.00;;;5.83;;
7160;SDS011;3622;53.576;9.978;2022-12-20T14:22:50;14.80;;;5.90;;
7160;SDS011;3622;53.576;9.978;2022-12-20T14:25:21;12.47;;;7.13;;
7160;SDS011;3622;53.576;9.978;2022-12-20T14:27:50;7.23;;;5.37;;
7160;SDS011;3622;53.576;9.978;2022-12-20T14:30:29;8.27;;;5.90;;
7160;SDS011;3622;53.576;9.978;2022-12-20T14:32:56;6.97;;;5.53;;
7160;SDS011;3622;53.576;9.978;2022-12-20T14:35:22;5.53;;;5.03;;
7160;SDS011;3622;53.576;9.978;2022-12-20T14:37:52;6.53;;;5.70;;
7160;SDS011;3622;53.576;9.978;2022-12-20T14:40:19;8.77;;;5.63;;
7160;SDS011;3622;53.576;9.978;2022-12-20T14:42:45;6.00;;;4.90;;
7160;SDS011;3622;53.576;9.978;2022-12-20T14:47:38;8.93;;;5.97;;
7160;SDS011;3622;53.576;9.978;2022-12-20T14:50:16;6.37;;;5.73;;
7160;SDS011;3622;53.576;9.978;2022-12-20T14:52:42;6.83;;;5.60;;
7160;SDS011;3622;53.576;9.978;2022-12-20T14:55:15;12.77;;;5.43;;
7160;SDS011;3622;53.576;9.978;2022-12-20T14:57:46;10.90;;;6.23;;
7160;SDS011;3622;53.576;9.978;2022-12-20T15:00:18;7.83;;;5.73;;
7160;SDS011;3622;53.576;9.978;2022-12-20T15:08:11;7.70;;;6.20;;
7160;SDS011;3622;53.576;9.978;2022-12-20T15:10:38;8.53;;;5.67;;
7160;SDS011;3622;53.576;9.978;2022-12-20T15:13:10;12.20;;;5.90;;
7160;SDS011;3622;53.576;9.978;2022-12-20T15:15:37;7.30;;;5.63;;
7160;SDS011;3622;53.576;9.978;2022-12-20T15:18:07;7.90;;;5.93;;
7160;SDS011;3622;53.576;9.978;2022-12-20T15:20:35;10.27;;;6.60;;
7160;SDS011;3622;53.576;9.978;2022-12-20T15:23:01;8.53;;;6.33;;
7160;SDS011;3622;53.576;9.978;2022-12-20T15:25:27;7.73;;;5.90;;
7160;SDS011;3622;53.576;9.978;2022-12-20T15:27:55;8.90;;;6.43;;
7160;SDS011;3622;53.576;9.978;2022-12-20T15:30:21;8.23;;;6.30;;
7160;SDS011;3622;53.576;9.978;2022-12-20T15:32:47;8.77;;;7.20;;
7160;SDS011;3622;53.576;9.978;2022-12-20T15:35:13;10.60;;;7.67;;
7160;SDS011;3622;53.576;9.978;2022-12-20T15:37:39;16.00;;;10.43;;
7160;SDS011;3622;53.576;9.978;2022-12-20T15:40:05;18.43;;;11.53;;
7160;SDS011;3622;53.576;9.978;2022-12-20T15:42:31;10.70;;;6.47;;
7160;SDS011;3622;53.576;9.978;2022-12-20T15:44:57;7.63;;;6.90;;
7160;SDS011;3622;53.576;9.978;2022-12-20T15:47:24;7.00;;;6.30;;
7160;SDS011;3622;53.576;9.978;2022-12-20T15:49:50;8.20;;;6.00;;
7160;SDS011;3622;53.576;9.978;2022-12-20T15:52:20;9.53;;;6.63;;
7160;SDS011;3622;53.576;9.978;2022-12-20T15:54:46;9.87;;;6.70;;
7160;SDS011;3622;53.576;9.978;2022-12-20T15:57:13;7.20;;;6.50;;
7160;SDS011;3622;53.576;9.978;2022-12-20T15:59:40;7.70;;;6.50;;
7160;SDS011;3622;53.576;9.978;2022-12-20T16:02:25;9.80;;;7.40;;
7160;SDS011;3622;53.576;9.978;2022-12-20T16:04:52;16.30;;;10.53;;
7160;SDS011;3622;53.576;9.978;2022-12-20T16:07:18;10.33;;;6.80;;
7160;SDS011;3622;53.576;9.978;2022-12-20T16:09:44;28.87;;;16.93;;
7160;SDS011;3622;53.576;9.978;2022-12-20T16:12:13;20.40;;;13.20;;
7160;SDS011;3622;53.576;9.978;2022-12-20T16:14:40;16.37;;;11.20;;
7160;SDS011;3622;53.576;9.978;2022-12-20T16:17:11;12.20;;;7.63;;
7160;SDS011;3622;53.576;9.978;2022-12-20T16:19:38;11.13;;;7.77;;
7160;SDS011;3622;53.576;9.978;2022-12-20T16:22:04;9.80;;;7.13;;
7160;SDS011;3622;53.576;9.978;2022-12-20T16:24:30;8.43;;;6.20;;
7160;SDS011;3622;53.576;9.978;2022-12-20T16:26:56;11.70;;;7.20;;
7160;SDS011;3622;53.576;9.978;2022-12-20T16:29:22;11.30;;;7.20;;
7160;SDS011;3622;53.576;9.978;2022-12-20T16:31:48;12.30;;;9.00;;
7160;SDS011;3622;53.576;9.978;2022-12-20T16:34:16;15.40;;;7.73;;
7160;SDS011;3622;53.576;9.978;2022-12-20T16:36:42;14.17;;;9.53;;
7160;SDS011;3622;53.576;9.978;2022-12-20T16:39:08;9.17;;;6.80;;
7160;SDS011;3622;53.576;9.978;2022-12-20T16:41:35;21.40;;;12.73;;
7160;SDS011;3622;53.576;9.978;2022-12-20T16:44:01;8.33;;;6.53;;
7160;SDS011;3622;53.576;9.978;2022-12-20T16:46:28;10.13;;;8.00;;
7160;SDS011;3622;53.576;9.978;2022-12-20T16:48:55;10.00;;;7.70;;
7160;SDS011;3622;53.576;9.978;2022-12-20T16:53:49;9.23;;;7.17;;
7160;SDS011;3622;53.576;9.978;2022-12-20T16:56:15;11.50;;;8.43;;
7160;SDS011;3622;53.576;9.978;2022-12-20T16:58:41;11.53;;;8.30;;
7160;SDS011;3622;53.576;9.978;2022-12-20T17:01:11;11.43;;;7.77;;
7160;SDS011;3622;53.576;9.978;2022-12-20T17:03:39;12.90;;;8.00;;
7160;SDS011;3622;53.576;9.978;2022-12-20T17:06:05;11.90;;;7.93;;
7160;SDS011;3622;53.576;9.978;2022-12-20T17:08:31;11.67;;;7.70;;
7160;SDS011;3622;53.576;9.978;2022-12-20T17:10:57;10.00;;;8.13;;
7160;SDS011;3622;53.576;9.978;2022-12-20T17:13:23;11.37;;;8.20;;
7160;SDS011;3622;53.576;9.978;2022-12-20T17:15:49;12.03;;;8.50;;